Flight Briefing for CPX333

Departure Arrival
Valley International Airport (KHRL)
Click to view FAA NOTAMS
Austin-Bergstrom International Airport (KAUS)
Click to view FAA NOTAMS
Departure Time Arrival Time
N/A N/A
Aircraft Distance
B767-300BDSF 273nm
Departure METAR Arrival METAR
KHRL 221052Z 09007KT 10SM CLR 17/15 A3008 RMK AO2 SLP185 T01670150 KAUS 221053Z 00000KT 10SM R17L/4500VP6000FT FEW200 07/05 A3015 RMK AO2 SLP206 T00720050 $
Suggested Route
CRP PCKIT


View recent IFR Routes data
Notes



Charts and Procedures

Charts for KHRL
No chart available
Charts for KAUS
No chart available

Windy.com Weather Map